sensor_id;sensor_type;location;lat;lon;timestamp;P1;durP1;ratioP1;P2;durP2;ratioP2
83096;SDS011;72968;49.460;11.004;2023-09-30T00:01:01;7.93;;;2.30;;
83096;SDS011;72968;49.460;11.004;2023-09-30T00:03:02;7.95;;;2.03;;
83096;SDS011;72968;49.460;11.004;2023-09-30T00:05:03;4.28;;;1.83;;
83096;SDS011;72968;49.460;11.004;2023-09-30T00:07:05;7.90;;;2.45;;
83096;SDS011;72968;49.460;11.004;2023-09-30T00:09:06;6.68;;;2.35;;
83096;SDS011;72968;49.460;11.004;2023-09-30T00:11:07;9.98;;;2.63;;
83096;SDS011;72968;49.460;11.004;2023-09-30T00:13:09;4.03;;;1.70;;
83096;SDS011;72968;49.460;11.004;2023-09-30T00:15:12;8.93;;;2.55;;
83096;SDS011;72968;49.460;11.004;2023-09-30T00:17:13;10.00;;;2.17;;
83096;SDS011;72968;49.460;11.004;2023-09-30T00:19:15;6.05;;;2.60;;
83096;SDS011;72968;49.460;11.004;2023-09-30T00:21:16;6.90;;;2.13;;
83096;SDS011;72968;49.460;11.004;2023-09-30T00:23:17;6.07;;;2.00;;
83096;SDS011;72968;49.460;11.004;2023-09-30T00:25:21;7.93;;;2.28;;
83096;SDS011;72968;49.460;11.004;2023-09-30T00:27:22;8.55;;;2.97;;
83096;SDS011;72968;49.460;11.004;2023-09-30T00:29:23;7.40;;;2.47;;
83096;SDS011;72968;49.460;11.004;2023-09-30T00:31:26;5.82;;;2.25;;
83096;SDS011;72968;49.460;11.004;2023-09-30T00:33:27;9.00;;;2.40;;
83096;SDS011;72968;49.460;11.004;2023-09-30T00:35:27;6.05;;;2.15;;
83096;SDS011;72968;49.460;11.004;2023-09-30T00:37:29;6.43;;;2.08;;
83096;SDS011;72968;49.460;11.004;2023-09-30T00:39:30;7.07;;;2.17;;
83096;SDS011;72968;49.460;11.004;2023-09-30T00:41:32;6.22;;;2.00;;
83096;SDS011;72968;49.460;11.004;2023-09-30T00:43:34;8.15;;;2.85;;
83096;SDS011;72968;49.460;11.004;2023-09-30T00:45:35;5.80;;;2.10;;
83096;SDS011;72968;49.460;11.004;2023-09-30T00:47:39;7.60;;;2.63;;
83096;SDS011;72968;49.460;11.004;2023-09-30T00:49:41;6.15;;;1.90;;
83096;SDS011;72968;49.460;11.004;2023-09-30T00:51:43;6.22;;;2.20;;
83096;SDS011;72968;49.460;11.004;2023-09-30T00:53:44;6.70;;;2.13;;
83096;SDS011;72968;49.460;11.004;2023-09-30T00:55:46;8.35;;;2.70;;
83096;SDS011;72968;49.460;11.004;2023-09-30T00:57:47;7.93;;;2.33;;
83096;SDS011;72968;49.460;11.004;2023-09-30T00:59:49;7.05;;;2.15;;
83096;SDS011;72968;49.460;11.004;2023-09-30T01:01:50;6.90;;;2.08;;
83096;SDS011;72968;49.460;11.004;2023-09-30T01:03:52;7.50;;;2.30;;
83096;SDS011;72968;49.460;11.004;2023-09-30T01:05:54;6.88;;;2.92;;
83096;SDS011;72968;49.460;11.004;2023-09-30T01:07:55;5.47;;;2.00;;
83096;SDS011;72968;49.460;11.004;2023-09-30T01:09:55;6.28;;;1.92;;
83096;SDS011;72968;49.460;11.004;2023-09-30T01:11:57;8.70;;;2.00;;
83096;SDS011;72968;49.460;11.004;2023-09-30T01:13:58;4.43;;;1.80;;
83096;SDS011;72968;49.460;11.004;2023-09-30T01:16:02;6.53;;;2.10;;
83096;SDS011;72968;49.460;11.004;2023-09-30T01:18:03;10.85;;;2.15;;
83096;SDS011;72968;49.460;11.004;2023-09-30T01:20:06;6.75;;;2.35;;
83096;SDS011;72968;49.460;11.004;2023-09-30T01:22:10;6.28;;;1.90;;
83096;SDS011;72968;49.460;11.004;2023-09-30T01:24:11;7.05;;;2.33;;
83096;SDS011;72968;49.460;11.004;2023-09-30T01:26:12;4.93;;;1.67;;
83096;SDS011;72968;49.460;11.004;2023-09-30T01:28:14;9.45;;;2.47;;
83096;SDS011;72968;49.460;11.004;2023-09-30T01:30:16;4.95;;;2.17;;
83096;SDS011;72968;49.460;11.004;2023-09-30T01:32:18;3.70;;;1.65;;
83096;SDS011;72968;49.460;11.004;2023-09-30T01:34:19;4.45;;;1.80;;
83096;SDS011;72968;49.460;11.004;2023-09-30T01:36:20;8.00;;;1.90;;
83096;SDS011;72968;49.460;11.004;2023-09-30T01:38:23;6.55;;;1.70;;
83096;SDS011;72968;49.460;11.004;2023-09-30T01:40:24;7.10;;;2.25;;
83096;SDS011;72968;49.460;11.004;2023-09-30T01:42:26;6.28;;;1.90;;
83096;SDS011;72968;49.460;11.004;2023-09-30T01:44:27;6.47;;;2.08;;
83096;SDS011;72968;49.460;11.004;2023-09-30T01:46:28;8.68;;;2.10;;
83096;SDS011;72968;49.460;11.004;2023-09-30T01:48:29;6.63;;;2.35;;
83096;SDS011;72968;49.460;11.004;2023-09-30T01:50:30;9.32;;;2.65;;
83096;SDS011;72968;49.460;11.004;2023-09-30T01:52:31;6.70;;;2.38;;
83096;SDS011;72968;49.460;11.004;2023-09-30T01:54:34;9.32;;;2.65;;
83096;SDS011;72968;49.460;11.004;2023-09-30T01:56:35;7.70;;;2.50;;
83096;SDS011;72968;49.460;11.004;2023-09-30T01:58:36;5.32;;;1.67;;
83096;SDS011;72968;49.460;11.004;2023-09-30T02:00:38;5.22;;;2.15;;
83096;SDS011;72968;49.460;11.004;2023-09-30T02:02:39;8.75;;;2.55;;
83096;SDS011;72968;49.460;11.004;2023-09-30T02:04:42;8.27;;;2.30;;
83096;SDS011;72968;49.460;11.004;2023-09-30T02:06:43;4.80;;;1.75;;
83096;SDS011;72968;49.460;11.004;2023-09-30T02:08:45;8.10;;;2.50;;
83096;SDS011;72968;49.460;11.004;2023-09-30T02:10:47;7.38;;;2.65;;
83096;SDS011;72968;49.460;11.004;2023-09-30T02:12:48;5.95;;;2.30;;
83096;SDS011;72968;49.460;11.004;2023-09-30T02:14:49;5.07;;;2.33;;
83096;SDS011;72968;49.460;11.004;2023-09-30T02:16:49;7.38;;;2.20;;
83096;SDS011;72968;49.460;11.004;2023-09-30T02:18:51;7.78;;;2.38;;
83096;SDS011;72968;49.460;11.004;2023-09-30T02:20:53;8.25;;;2.25;;
83096;SDS011;72968;49.460;11.004;2023-09-30T02:22:54;5.47;;;2.38;;
83096;SDS011;72968;49.460;11.004;2023-09-30T02:24:55;7.07;;;2.17;;
83096;SDS011;72968;49.460;11.004;2023-09-30T02:26:57;5.95;;;2.10;;
83096;SDS011;72968;49.460;11.004;2023-09-30T02:28:58;5.80;;;2.50;;
83096;SDS011;72968;49.460;11.004;2023-09-30T02:31:00;7.07;;;2.63;;
83096;SDS011;72968;49.460;11.004;2023-09-30T02:33:00;6.55;;;2.47;;
83096;SDS011;72968;49.460;11.004;2023-09-30T02:35:02;5.30;;;2.38;;
83096;SDS011;72968;49.460;11.004;2023-09-30T02:37:05;6.22;;;2.40;;
83096;SDS011;72968;49.460;11.004;2023-09-30T02:39:06;6.32;;;2.45;;
83096;SDS011;72968;49.460;11.004;2023-09-30T02:41:09;8.85;;;2.80;;
83096;SDS011;72968;49.460;11.004;2023-09-30T02:43:12;5.22;;;2.20;;
83096;SDS011;72968;49.460;11.004;2023-09-30T02:45:13;3.92;;;2.45;;
83096;SDS011;72968;49.460;11.004;2023-09-30T02:47:14;4.63;;;2.00;;
83096;SDS011;72968;49.460;11.004;2023-09-30T02:49:16;3.47;;;1.30;;
83096;SDS011;72968;49.460;11.004;2023-09-30T02:51:17;3.20;;;1.30;;
83096;SDS011;72968;49.460;11.004;2023-09-30T02:53:18;3.75;;;1.38;;
83096;SDS011;72968;49.460;11.004;2023-09-30T02:55:20;2.80;;;1.30;;
83096;SDS011;72968;49.460;11.004;2023-09-30T02:57:20;2.47;;;1.40;;
83096;SDS011;72968;49.460;11.004;2023-09-30T02:59:23;3.30;;;1.27;;
83096;SDS011;72968;49.460;11.004;2023-09-30T03:01:25;4.80;;;1.27;;
83096;SDS011;72968;49.460;11.004;2023-09-30T03:03:26;3.58;;;1.45;;
83096;SDS011;72968;49.460;11.004;2023-09-30T03:05:28;2.33;;;1.25;;
83096;SDS011;72968;49.460;11.004;2023-09-30T03:07:30;4.22;;;1.58;;
83096;SDS011;72968;49.460;11.004;2023-09-30T03:09:33;2.63;;;1.45;;
83096;SDS011;72968;49.460;11.004;2023-09-30T03:11:34;2.90;;;1.67;;
83096;SDS011;72968;49.460;11.004;2023-09-30T03:13:35;5.38;;;1.45;;
83096;SDS011;72968;49.460;11.004;2023-09-30T03:15:38;4.70;;;1.50;;
83096;SDS011;72968;49.460;11.004;2023-09-30T03:17:40;4.28;;;1.90;;
83096;SDS011;72968;49.460;11.004;2023-09-30T03:19:41;4.60;;;1.65;;
83096;SDS011;72968;49.460;11.004;2023-09-30T03:21:43;5.00;;;1.90;;
83096;SDS011;72968;49.460;11.004;2023-09-30T03:23:45;5.32;;;1.98;;
83096;SDS011;72968;49.460;11.004;2023-09-30T03:25:46;7.63;;;1.80;;
83096;SDS011;72968;49.460;11.004;2023-09-30T03:27:48;8.40;;;2.05;;
83096;SDS011;72968;49.460;11.004;2023-09-30T03:29:49;5.43;;;1.80;;
83096;SDS011;72968;49.460;11.004;2023-09-30T03:31:52;4.57;;;1.80;;
83096;SDS011;72968;49.460;11.004;2023-09-30T03:33:53;5.50;;;2.75;;
83096;SDS011;72968;49.460;11.004;2023-09-30T03:35:54;6.65;;;1.95;;
83096;SDS011;72968;49.460;11.004;2023-09-30T03:37:58;4.80;;;1.90;;
83096;SDS011;72968;49.460;11.004;2023-09-30T03:40:02;6.65;;;2.00;;
83096;SDS011;72968;49.460;11.004;2023-09-30T03:42:11;5.45;;;1.95;;
83096;SDS011;72968;49.460;11.004;2023-09-30T03:44:13;3.47;;;1.88;;
83096;SDS011;72968;49.460;11.004;2023-09-30T03:46:14;6.30;;;2.05;;
83096;SDS011;72968;49.460;11.004;2023-09-30T03:48:17;4.85;;;1.92;;
83096;SDS011;72968;49.460;11.004;2023-09-30T03:50:19;6.10;;;2.05;;
83096;SDS011;72968;49.460;11.004;2023-09-30T03:52:19;4.70;;;1.90;;
83096;SDS011;72968;49.460;11.004;2023-09-30T03:54:23;5.03;;;1.70;;
83096;SDS011;72968;49.460;11.004;2023-09-30T03:56:24;3.33;;;1.80;;
83096;SDS011;72968;49.460;11.004;2023-09-30T03:58:25;5.38;;;1.75;;
83096;SDS011;72968;49.460;11.004;2023-09-30T04:00:27;3.72;;;1.63;;
83096;SDS011;72968;49.460;11.004;2023-09-30T04:02:28;5.18;;;2.05;;
83096;SDS011;72968;49.460;11.004;2023-09-30T04:04:31;7.47;;;2.15;;
83096;SDS011;72968;49.460;11.004;2023-09-30T04:06:34;7.00;;;1.80;;
83096;SDS011;72968;49.460;11.004;2023-09-30T04:08:38;5.55;;;1.98;;
83096;SDS011;72968;49.460;11.004;2023-09-30T04:10:40;7.03;;;2.17;;
83096;SDS011;72968;49.460;11.004;2023-09-30T04:12:41;4.75;;;2.10;;
83096;SDS011;72968;49.460;11.004;2023-09-30T04:14:43;4.60;;;1.95;;
83096;SDS011;72968;49.460;11.004;2023-09-30T04:16:44;5.72;;;2.08;;
83096;SDS011;72968;49.460;11.004;2023-09-30T04:18:46;3.88;;;2.15;;
83096;SDS011;72968;49.460;11.004;2023-09-30T04:20:51;6.00;;;1.90;;
83096;SDS011;72968;49.460;11.004;2023-09-30T04:22:53;4.47;;;2.13;;
83096;SDS011;72968;49.460;11.004;2023-09-30T04:24:57;8.63;;;2.58;;
83096;SDS011;72968;49.460;11.004;2023-09-30T04:26:58;5.32;;;2.03;;
83096;SDS011;72968;49.460;11.004;2023-09-30T04:29:03;7.18;;;2.22;;
83096;SDS011;72968;49.460;11.004;2023-09-30T04:31:04;5.30;;;2.10;;
83096;SDS011;72968;49.460;11.004;2023-09-30T04:33:05;5.22;;;2.35;;
83096;SDS011;72968;49.460;11.004;2023-09-30T04:35:08;4.53;;;2.10;;
83096;SDS011;72968;49.460;11.004;2023-09-30T04:37:11;5.25;;;2.10;;
83096;SDS011;72968;49.460;11.004;2023-09-30T04:39:13;6.47;;;1.90;;
83096;SDS011;72968;49.460;11.004;2023-09-30T04:41:15;6.32;;;1.95;;
83096;SDS011;72968;49.460;11.004;2023-09-30T04:43:16;5.05;;;2.00;;
83096;SDS011;72968;49.460;11.004;2023-09-30T04:45:18;4.40;;;1.95;;
83096;SDS011;72968;49.460;11.004;2023-09-30T04:47:20;5.55;;;2.28;;
83096;SDS011;72968;49.460;11.004;2023-09-30T04:49:21;5.60;;;1.73;;
83096;SDS011;72968;49.460;11.004;2023-09-30T04:51:23;8.07;;;1.95;;
83096;SDS011;72968;49.460;11.004;2023-09-30T04:53:27;4.35;;;1.73;;
83096;SDS011;72968;49.460;11.004;2023-09-30T04:55:28;3.55;;;1.80;;
83096;SDS011;72968;49.460;11.004;2023-09-30T04:57:29;5.03;;;2.28;;
83096;SDS011;72968;49.460;11.004;2023-09-30T04:59:30;4.35;;;1.67;;
83096;SDS011;72968;49.460;11.004;2023-09-30T05:01:31;4.00;;;1.65;;
83096;SDS011;72968;49.460;11.004;2023-09-30T05:03:32;6.68;;;1.90;;
83096;SDS011;72968;49.460;11.004;2023-09-30T05:05:33;4.00;;;1.77;;
83096;SDS011;72968;49.460;11.004;2023-09-30T05:07:34;5.22;;;2.08;;
83096;SDS011;72968;49.460;11.004;2023-09-30T05:09:37;7.30;;;1.90;;
83096;SDS011;72968;49.460;11.004;2023-09-30T05:11:38;5.75;;;2.17;;
83096;SDS011;72968;49.460;11.004;2023-09-30T05:13:39;6.60;;;2.28;;
83096;SDS011;72968;49.460;11.004;2023-09-30T05:15:41;5.97;;;2.22;;
83096;SDS011;72968;49.460;11.004;2023-09-30T05:17:42;7.38;;;2.60;;
83096;SDS011;72968;49.460;11.004;2023-09-30T05:19:44;4.25;;;1.88;;
83096;SDS011;72968;49.460;11.004;2023-09-30T05:21:46;4.72;;;2.15;;
83096;SDS011;72968;49.460;11.004;2023-09-30T05:23:48;6.80;;;2.50;;
83096;SDS011;72968;49.460;11.004;2023-09-30T05:25:50;5.32;;;2.50;;
83096;SDS011;72968;49.460;11.004;2023-09-30T05:27:53;5.65;;;2.45;;
83096;SDS011;72968;49.460;11.004;2023-09-30T05:29:54;8.65;;;2.90;;
83096;SDS011;72968;49.460;11.004;2023-09-30T05:31:56;5.43;;;2.50;;
83096;SDS011;72968;49.460;11.004;2023-09-30T05:33:57;5.00;;;2.63;;
83096;SDS011;72968;49.460;11.004;2023-09-30T05:35:58;6.85;;;2.80;;
83096;SDS011;72968;49.460;11.004;2023-09-30T05:38:03;5.78;;;2.50;;
83096;SDS011;72968;49.460;11.004;2023-09-30T05:40:06;5.82;;;2.30;;
83096;SDS011;72968;49.460;11.004;2023-09-30T05:42:17;4.47;;;2.30;;
83096;SDS011;72968;49.460;11.004;2023-09-30T05:44:19;3.47;;;2.08;;
83096;SDS011;72968;49.460;11.004;2023-09-30T05:46:21;11.45;;;3.67;;
83096;SDS011;72968;49.460;11.004;2023-09-30T05:48:22;9.10;;;2.58;;
83096;SDS011;72968;49.460;11.004;2023-09-30T05:50:23;8.20;;;3.10;;
83096;SDS011;72968;49.460;11.004;2023-09-30T05:52:24;7.45;;;3.03;;
83096;SDS011;72968;49.460;11.004;2023-09-30T05:54:26;5.28;;;2.90;;
83096;SDS011;72968;49.460;11.004;2023-09-30T05:56:28;6.07;;;2.88;;
83096;SDS011;72968;49.460;11.004;2023-09-30T05:58:31;7.05;;;3.08;;
83096;SDS011;72968;49.460;11.004;2023-09-30T06:00:32;4.47;;;2.42;;
83096;SDS011;72968;49.460;11.004;2023-09-30T06:02:35;5.65;;;2.95;;
83096;SDS011;72968;49.460;11.004;2023-09-30T06:04:35;7.22;;;2.92;;
83096;SDS011;72968;49.460;11.004;2023-09-30T06:06:37;8.10;;;2.78;;
83096;SDS011;72968;49.460;11.004;2023-09-30T06:08:38;5.45;;;2.88;;
83096;SDS011;72968;49.460;11.004;2023-09-30T06:10:39;9.52;;;3.08;;
83096;SDS011;72968;49.460;11.004;2023-09-30T06:12:42;6.13;;;2.53;;
83096;SDS011;72968;49.460;11.004;2023-09-30T06:14:44;5.22;;;2.35;;
83096;SDS011;72968;49.460;11.004;2023-09-30T06:16:45;9.63;;;3.00;;
83096;SDS011;72968;49.460;11.004;2023-09-30T06:18:47;7.70;;;2.88;;
83096;SDS011;72968;49.460;11.004;2023-09-30T06:20:49;5.10;;;2.70;;
83096;SDS011;72968;49.460;11.004;2023-09-30T06:22:50;6.68;;;2.95;;
83096;SDS011;72968;49.460;11.004;2023-09-30T06:24:51;5.07;;;2.28;;
83096;SDS011;72968;49.460;11.004;2023-09-30T06:26:52;6.80;;;2.67;;
83096;SDS011;72968;49.460;11.004;2023-09-30T06:28:54;6.45;;;3.25;;
83096;SDS011;72968;49.460;11.004;2023-09-30T06:30:57;6.95;;;2.67;;
83096;SDS011;72968;49.460;11.004;2023-09-30T06:32:59;5.10;;;2.47;;
83096;SDS011;72968;49.460;11.004;2023-09-30T06:35:01;5.80;;;2.75;;
83096;SDS011;72968;49.460;11.004;2023-09-30T06:37:02;6.55;;;3.30;;
83096;SDS011;72968;49.460;11.004;2023-09-30T06:39:04;5.72;;;2.25;;
83096;SDS011;72968;49.460;11.004;2023-09-30T06:41:05;5.82;;;1.95;;
83096;SDS011;72968;49.460;11.004;2023-09-30T06:43:07;6.53;;;2.17;;
83096;SDS011;72968;49.460;11.004;2023-09-30T06:45:09;7.90;;;2.20;;
83096;SDS011;72968;49.460;11.004;2023-09-30T06:47:11;7.47;;;2.17;;
83096;SDS011;72968;49.460;11.004;2023-09-30T06:49:12;6.72;;;2.67;;
83096;SDS011;72968;49.460;11.004;2023-09-30T06:51:14;5.38;;;2.38;;
83096;SDS011;72968;49.460;11.004;2023-09-30T06:53:16;5.55;;;2.40;;
83096;SDS011;72968;49.460;11.004;2023-09-30T06:55:16;5.43;;;2.47;;
83096;SDS011;72968;49.460;11.004;2023-09-30T06:57:18;5.57;;;2.30;;
83096;SDS011;72968;49.460;11.004;2023-09-30T06:59:19;5.20;;;2.22;;
83096;SDS011;72968;49.460;11.004;2023-09-30T07:01:21;4.50;;;1.75;;
83096;SDS011;72968;49.460;11.004;2023-09-30T07:03:23;5.65;;;1.95;;
83096;SDS011;72968;49.460;11.004;2023-09-30T07:05:25;4.35;;;2.15;;
83096;SDS011;72968;49.460;11.004;2023-09-30T07:07:26;8.68;;;2.45;;
83096;SDS011;72968;49.460;11.004;2023-09-30T07:09:29;5.13;;;2.08;;
83096;SDS011;72968;49.460;11.004;2023-09-30T07:11:31;4.35;;;2.17;;
83096;SDS011;72968;49.460;11.004;2023-09-30T07:13:33;5.72;;;1.92;;
83096;SDS011;72968;49.460;11.004;2023-09-30T07:15:35;5.20;;;2.25;;
83096;SDS011;72968;49.460;11.004;2023-09-30T07:17:37;5.85;;;2.35;;
83096;SDS011;72968;49.460;11.004;2023-09-30T07:19:43;4.13;;;2.25;;
83096;SDS011;72968;49.460;11.004;2023-09-30T07:21:44;6.38;;;2.25;;
83096;SDS011;72968;49.460;11.004;2023-09-30T07:23:46;6.40;;;2.05;;
83096;SDS011;72968;49.460;11.004;2023-09-30T07:25:51;5.65;;;2.13;;
83096;SDS011;72968;49.460;11.004;2023-09-30T07:27:53;5.82;;;2.53;;
83096;SDS011;72968;49.460;11.004;2023-09-30T07:29:54;5.38;;;2.03;;
83096;SDS011;72968;49.460;11.004;2023-09-30T07:31:56;3.70;;;1.90;;
83096;SDS011;72968;49.460;11.004;2023-09-30T07:33:57;6.40;;;2.20;;
83096;SDS011;72968;49.460;11.004;2023-09-30T07:36:00;6.63;;;1.98;;
83096;SDS011;72968;49.460;11.004;2023-09-30T07:38:02;3.65;;;2.10;;
83096;SDS011;72968;49.460;11.004;2023-09-30T07:40:05;7.75;;;2.45;;
83096;SDS011;72968;49.460;11.004;2023-09-30T07:42:08;4.82;;;1.98;;
83096;SDS011;72968;49.460;11.004;2023-09-30T07:44:09;3.90;;;2.30;;
83096;SDS011;72968;49.460;11.004;2023-09-30T07:46:11;7.65;;;1.88;;
83096;SDS011;72968;49.460;11.004;2023-09-30T07:48:12;5.03;;;1.98;;
83096;SDS011;72968;49.460;11.004;2023-09-30T07:50:14;5.10;;;2.08;;
83096;SDS011;72968;49.460;11.004;2023-09-30T07:52:17;4.07;;;1.55;;
83096;SDS011;72968;49.460;11.004;2023-09-30T07:54:18;7.40;;;2.72;;
83096;SDS011;72968;49.460;11.004;2023-09-30T07:56:19;5.43;;;2.08;;
83096;SDS011;72968;49.460;11.004;2023-09-30T07:58:22;3.53;;;2.08;;
83096;SDS011;72968;49.460;11.004;2023-09-30T08:00:23;4.72;;;2.38;;
83096;SDS011;72968;49.460;11.004;2023-09-30T08:02:24;5.10;;;1.88;;
83096;SDS011;72968;49.460;11.004;2023-09-30T08:04:27;5.28;;;1.95;;
83096;SDS011;72968;49.460;11.004;2023-09-30T08:06:29;7.28;;;2.20;;
83096;SDS011;72968;49.460;11.004;2023-09-30T08:08:32;4.63;;;1.92;;
83096;SDS011;72968;49.460;11.004;2023-09-30T08:10:34;6.28;;;2.05;;
83096;SDS011;72968;49.460;11.004;2023-09-30T08:12:36;7.22;;;2.35;;
83096;SDS011;72968;49.460;11.004;2023-09-30T08:14:37;6.38;;;2.15;;
83096;SDS011;72968;49.460;11.004;2023-09-30T08:16:39;5.03;;;1.92;;
83096;SDS011;72968;49.460;11.004;2023-09-30T08:18:40;7.07;;;2.28;;
83096;SDS011;72968;49.460;11.004;2023-09-30T08:20:42;5.43;;;2.00;;
83096;SDS011;72968;49.460;11.004;2023-09-30T08:22:43;7.88;;;2.00;;
83096;SDS011;72968;49.460;11.004;2023-09-30T08:24:46;4.05;;;1.80;;
83096;SDS011;72968;49.460;11.004;2023-09-30T08:26:50;5.13;;;2.08;;
83096;SDS011;72968;49.460;11.004;2023-09-30T08:28:52;4.25;;;1.92;;
83096;SDS011;72968;49.460;11.004;2023-09-30T08:30:53;6.05;;;2.15;;
83096;SDS011;72968;49.460;11.004;2023-09-30T08:32:59;5.15;;;2.00;;
83096;SDS011;72968;49.460;11.004;2023-09-30T08:35:00;6.82;;;2.08;;
83096;SDS011;72968;49.460;11.004;2023-09-30T08:37:02;4.82;;;2.30;;
83096;SDS011;72968;49.460;11.004;2023-09-30T08:39:04;3.95;;;1.80;;
83096;SDS011;72968;49.460;11.004;2023-09-30T08:41:07;3.92;;;1.85;;
83096;SDS011;72968;49.460;11.004;2023-09-30T08:43:09;4.28;;;2.10;;
83096;SDS011;72968;49.460;11.004;2023-09-30T08:45:12;4.57;;;1.88;;
83096;SDS011;72968;49.460;11.004;2023-09-30T08:47:14;5.40;;;1.98;;
83096;SDS011;72968;49.460;11.004;2023-09-30T08:49:16;8.18;;;2.10;;
83096;SDS011;72968;49.460;11.004;2023-09-30T08:51:19;6.95;;;1.98;;
83096;SDS011;72968;49.460;11.004;2023-09-30T08:53:20;5.30;;;2.10;;
83096;SDS011;72968;49.460;11.004;2023-09-30T08:55:22;3.90;;;1.77;;
83096;SDS011;72968;49.460;11.004;2023-09-30T08:57:27;3.75;;;1.75;;
83096;SDS011;72968;49.460;11.004;2023-09-30T08:59:29;5.43;;;2.15;;
83096;SDS011;72968;49.460;11.004;2023-09-30T09:01:30;5.32;;;2.03;;
83096;SDS011;72968;49.460;11.004;2023-09-30T09:03:32;5.28;;;1.92;;
83096;SDS011;72968;49.460;11.004;2023-09-30T09:05:33;6.38;;;2.08;;
83096;SDS011;72968;49.460;11.004;2023-09-30T09:07:35;5.05;;;2.15;;
83096;SDS011;72968;49.460;11.004;2023-09-30T09:09:35;5.25;;;1.70;;
83096;SDS011;72968;49.460;11.004;2023-09-30T09:11:37;4.47;;;1.60;;
83096;SDS011;72968;49.460;11.004;2023-09-30T09:13:48;5.18;;;1.92;;
83096;SDS011;72968;49.460;11.004;2023-09-30T09:16:05;4.95;;;1.63;;
83096;SDS011;72968;49.460;11.004;2023-09-30T09:18:06;5.22;;;1.50;;
83096;SDS011;72968;49.460;11.004;2023-09-30T09:20:08;4.63;;;1.70;;
83096;SDS011;72968;49.460;11.004;2023-09-30T09:22:10;4.70;;;1.58;;
83096;SDS011;72968;49.460;11.004;2023-09-30T09:24:12;5.47;;;1.92;;
83096;SDS011;72968;49.460;11.004;2023-09-30T09:26:27;7.85;;;1.88;;
83096;SDS011;72968;49.460;11.004;2023-09-30T09:28:33;4.45;;;2.00;;
83096;SDS011;72968;49.460;11.004;2023-09-30T09:30:37;4.25;;;1.40;;
83096;SDS011;72968;49.460;11.004;2023-09-30T09:32:51;4.95;;;1.80;;
83096;SDS011;72968;49.460;11.004;2023-09-30T09:36:55;3.88;;;1.58;;
83096;SDS011;72968;49.460;11.004;2023-09-30T09:38:57;3.58;;;1.70;;
83096;SDS011;72968;49.460;11.004;2023-09-30T09:40:59;5.72;;;2.10;;
83096;SDS011;72968;49.460;11.004;2023-09-30T09:42:59;6.75;;;1.75;;
83096;SDS011;72968;49.460;11.004;2023-09-30T09:45:04;3.25;;;1.45;;
83096;SDS011;72968;49.460;11.004;2023-09-30T09:47:07;3.67;;;1.55;;
83096;SDS011;72968;49.460;11.004;2023-09-30T09:49:08;6.05;;;1.83;;
83096;SDS011;72968;49.460;11.004;2023-09-30T09:51:11;5.53;;;1.45;;
83096;SDS011;72968;49.460;11.004;2023-09-30T09:53:13;5.28;;;1.67;;
83096;SDS011;72968;49.460;11.004;2023-09-30T09:55:15;5.35;;;1.60;;
83096;SDS011;72968;49.460;11.004;2023-09-30T09:57:17;4.70;;;1.83;;
83096;SDS011;72968;49.460;11.004;2023-09-30T09:59:19;5.30;;;1.45;;
83096;SDS011;72968;49.460;11.004;2023-09-30T10:01:21;5.10;;;1.88;;
83096;SDS011;72968;49.460;11.004;2023-09-30T10:03:23;4.95;;;1.60;;
83096;SDS011;72968;49.460;11.004;2023-09-30T10:05:24;5.00;;;2.20;;
83096;SDS011;72968;49.460;11.004;2023-09-30T10:07:27;4.65;;;1.80;;
83096;SDS011;72968;49.460;11.004;2023-09-30T10:09:28;4.70;;;1.80;;
83096;SDS011;72968;49.460;11.004;2023-09-30T10:11:29;5.28;;;1.70;;
83096;SDS011;72968;49.460;11.004;2023-09-30T10:15:51;5.22;;;1.60;;
83096;SDS011;72968;49.460;11.004;2023-09-30T10:17:58;5.90;;;2.25;;
83096;SDS011;72968;49.460;11.004;2023-09-30T10:20:07;6.22;;;3.03;;
83096;SDS011;72968;49.460;11.004;2023-09-30T10:22:22;7.70;;;3.03;;
83096;SDS011;72968;49.460;11.004;2023-09-30T10:24:28;5.55;;;2.63;;
83096;SDS011;72968;49.460;11.004;2023-09-30T10:26:29;6.15;;;2.35;;
83096;SDS011;72968;49.460;11.004;2023-09-30T10:28:34;5.88;;;2.15;;
83096;SDS011;72968;49.460;11.004;2023-09-30T10:30:34;4.00;;;1.75;;
83096;SDS011;72968;49.460;11.004;2023-09-30T10:34:51;3.75;;;1.50;;
83096;SDS011;72968;49.460;11.004;2023-09-30T10:36:54;4.53;;;2.03;;
83096;SDS011;72968;49.460;11.004;2023-09-30T10:38:55;5.20;;;2.15;;
83096;SDS011;72968;49.460;11.004;2023-09-30T10:40:56;6.05;;;1.83;;
83096;SDS011;72968;49.460;11.004;2023-09-30T10:42:57;7.18;;;2.30;;
83096;SDS011;72968;49.460;11.004;2023-09-30T10:44:59;5.68;;;2.10;;
83096;SDS011;72968;49.460;11.004;2023-09-30T10:49:31;7.65;;;2.03;;
83096;SDS011;72968;49.460;11.004;2023-09-30T10:51:32;4.75;;;1.83;;
83096;SDS011;72968;49.460;11.004;2023-09-30T10:53:44;5.50;;;1.90;;
83096;SDS011;72968;49.460;11.004;2023-09-30T10:55:45;6.10;;;2.00;;
83096;SDS011;72968;49.460;11.004;2023-09-30T10:57:50;4.68;;;1.80;;
83096;SDS011;72968;49.460;11.004;2023-09-30T11:00:04;4.57;;;1.90;;
83096;SDS011;72968;49.460;11.004;2023-09-30T11:02:17;4.97;;;1.40;;
83096;SDS011;72968;49.460;11.004;2023-09-30T11:04:19;3.67;;;1.60;;
83096;SDS011;72968;49.460;11.004;2023-09-30T11:06:21;4.32;;;1.75;;
83096;SDS011;72968;49.460;11.004;2023-09-30T11:08:23;5.47;;;1.60;;
83096;SDS011;72968;49.460;11.004;2023-09-30T11:10:26;6.47;;;1.65;;
83096;SDS011;72968;49.460;11.004;2023-09-30T11:12:27;4.72;;;1.50;;
83096;SDS011;72968;49.460;11.004;2023-09-30T11:14:30;3.30;;;1.60;;
83096;SDS011;72968;49.460;11.004;2023-09-30T11:16:39;3.90;;;2.10;;
83096;SDS011;72968;49.460;11.004;2023-09-30T11:18:41;5.57;;;1.88;;
83096;SDS011;72968;49.460;11.004;2023-09-30T11:20:43;5.45;;;1.92;;
83096;SDS011;72968;49.460;11.004;2023-09-30T11:22:44;3.78;;;1.80;;
83096;SDS011;72968;49.460;11.004;2023-09-30T11:24:45;4.53;;;1.63;;
83096;SDS011;72968;49.460;11.004;2023-09-30T11:26:52;6.45;;;2.08;;
83096;SDS011;72968;49.460;11.004;2023-09-30T11:28:53;4.28;;;1.58;;
83096;SDS011;72968;49.460;11.004;2023-09-30T11:30:56;6.32;;;1.70;;
83096;SDS011;72968;49.460;11.004;2023-09-30T11:32:58;4.72;;;1.80;;
83096;SDS011;72968;49.460;11.004;2023-09-30T11:34:59;3.90;;;1.80;;
83096;SDS011;72968;49.460;11.004;2023-09-30T11:37:01;5.72;;;2.00;;
83096;SDS011;72968;49.460;11.004;2023-09-30T11:39:03;5.20;;;2.10;;
83096;SDS011;72968;49.460;11.004;2023-09-30T11:41:04;4.78;;;2.17;;
83096;SDS011;72968;49.460;11.004;2023-09-30T11:43:08;8.07;;;2.10;;
83096;SDS011;72968;49.460;11.004;2023-09-30T11:45:18;5.10;;;2.22;;
83096;SDS011;72968;49.460;11.004;2023-09-30T11:47:28;6.30;;;2.10;;
83096;SDS011;72968;49.460;11.004;2023-09-30T11:49:30;6.20;;;2.42;;
83096;SDS011;72968;49.460;11.004;2023-09-30T11:51:42;5.20;;;2.17;;
83096;SDS011;72968;49.460;11.004;2023-09-30T11:53:44;3.78;;;2.08;;
83096;SDS011;72968;49.460;11.004;2023-09-30T11:55:45;5.28;;;1.75;;
83096;SDS011;72968;49.460;11.004;2023-09-30T11:57:47;5.10;;;1.85;;
83096;SDS011;72968;49.460;11.004;2023-09-30T11:59:51;5.07;;;1.90;;
83096;SDS011;72968;49.460;11.004;2023-09-30T12:01:54;5.53;;;2.03;;
83096;SDS011;72968;49.460;11.004;2023-09-30T12:03:55;4.53;;;1.90;;
83096;SDS011;72968;49.460;11.004;2023-09-30T12:05:57;7.93;;;2.58;;
83096;SDS011;72968;49.460;11.004;2023-09-30T12:08:00;5.53;;;2.10;;
83096;SDS011;72968;49.460;11.004;2023-09-30T12:10:01;5.28;;;1.80;;
83096;SDS011;72968;49.460;11.004;2023-09-30T12:12:03;5.03;;;1.75;;
83096;SDS011;72968;49.460;11.004;2023-09-30T12:14:04;5.07;;;2.10;;